Main page
METAR-TAF:

METAR-TAF

Airports :

Campo Grande International Airport

Campo Grande, Mato Grosso do Sul, Brazil

latitude: 20-28S, longitude: 054-40W, elevation: 567 m

Current weather observation

The report was made 42 minutes ago, at 06:00 UTC
Wind 7 kt from the Northeast
Temperature 26°C
Humidity 39%
Pressure 1012 hPa
Visibility 10 km or more
no clouds below 1500 m and no cumulonimbus

METAR: SBCG 150600Z 04007KT CAVOK 26/11 Q1012

Time: 02:42 (06:42 UTC)

Forecast

The report was made 3 hours and 42 minutes ago, at 03:00 UTC
Forecast valid from 15 at 06 UTC to 16 at 06 UTC
Wind 10 kt from the East/Northeast
Visibility 10 km or more
no clouds below 1500 m and no cumulonimbus
Becoming
from 15 at 14 UTC to 15 at 16 UTC
Wind 12 kt from the North
Becoming
from 15 at 22 UTC to 15 at 24 UTC
Wind 7 kt from the East/Northeast

TAF: SBCG 150300Z 1506/1606 07010KT CAVOK TN25/1508Z TX40/1518Z BECMG 1514/1516 36012KT BECMG 1522/1524 06007KT RMK PER

Weather observations and forecasts of more than 4000 airports (METAR and TAF reports).

The available stations are represented by yellow and red dots on the map.

Hover mouse over dot to see the name of the station.

Then click to see weather observations and forecasts.

To change the map : click on the green buttons with a black cross to zoom in, on the green button with a dash to zoom out, or on the green arrows for adjacent maps.


METAR-TAF: